sensor_id;sensor_type;location;lat;lon;timestamp;P1;durP1;ratioP1;P2;durP2;ratioP2
72676;SDS011;60755;51.374;10.662;2023-06-22T00:01:23;12.57;;;9.73;;
72676;SDS011;60755;51.374;10.662;2023-06-22T00:03:50;11.60;;;10.38;;
72676;SDS011;60755;51.374;10.662;2023-06-22T00:06:17;10.98;;;9.85;;
72676;SDS011;60755;51.374;10.662;2023-06-22T00:08:44;13.15;;;10.73;;
72676;SDS011;60755;51.374;10.662;2023-06-22T00:11:12;12.43;;;10.77;;
72676;SDS011;60755;51.374;10.662;2023-06-22T00:13:39;11.70;;;10.50;;
72676;SDS011;60755;51.374;10.662;2023-06-22T00:16:06;14.63;;;10.27;;
72676;SDS011;60755;51.374;10.662;2023-06-22T00:18:33;11.50;;;10.43;;
72676;SDS011;60755;51.374;10.662;2023-06-22T00:21:00;14.52;;;10.55;;
72676;SDS011;60755;51.374;10.662;2023-06-22T00:23:27;11.80;;;10.38;;
72676;SDS011;60755;51.374;10.662;2023-06-22T00:25:59;13.93;;;10.48;;
72676;SDS011;60755;51.374;10.662;2023-06-22T00:28:27;11.38;;;10.07;;
72676;SDS011;60755;51.374;10.662;2023-06-22T00:30:54;15.18;;;10.88;;
72676;SDS011;60755;51.374;10.662;2023-06-22T00:33:21;12.35;;;11.15;;
72676;SDS011;60755;51.374;10.662;2023-06-22T00:35:48;14.63;;;11.02;;
72676;SDS011;60755;51.374;10.662;2023-06-22T00:38:18;13.27;;;9.73;;
72676;SDS011;60755;51.374;10.662;2023-06-22T00:40:45;13.52;;;9.40;;
72676;SDS011;60755;51.374;10.662;2023-06-22T00:43:13;13.85;;;9.95;;
72676;SDS011;60755;51.374;10.662;2023-06-22T00:45:42;15.40;;;10.10;;
72676;SDS011;60755;51.374;10.662;2023-06-22T00:48:09;16.08;;;10.48;;
72676;SDS011;60755;51.374;10.662;2023-06-22T00:50:36;11.95;;;9.15;;
72676;SDS011;60755;51.374;10.662;2023-06-22T00:53:03;10.25;;;9.32;;
72676;SDS011;60755;51.374;10.662;2023-06-22T00:55:33;11.75;;;10.45;;
72676;SDS011;60755;51.374;10.662;2023-06-22T00:58:02;12.85;;;10.70;;
72676;SDS011;60755;51.374;10.662;2023-06-22T01:00:31;11.02;;;10.02;;
72676;SDS011;60755;51.374;10.662;2023-06-22T01:03:01;11.20;;;10.00;;
72676;SDS011;60755;51.374;10.662;2023-06-22T01:05:28;13.85;;;9.88;;
72676;SDS011;60755;51.374;10.662;2023-06-22T01:08:00;13.05;;;9.93;;
72676;SDS011;60755;51.374;10.662;2023-06-22T01:10:40;11.80;;;10.40;;
72676;SDS011;60755;51.374;10.662;2023-06-22T01:13:13;11.20;;;10.25;;
72676;SDS011;60755;51.374;10.662;2023-06-22T01:15:48;15.10;;;11.05;;
72676;SDS011;60755;51.374;10.662;2023-06-22T01:18:21;12.55;;;10.95;;
72676;SDS011;60755;51.374;10.662;2023-06-22T01:20:51;12.77;;;10.85;;
72676;SDS011;60755;51.374;10.662;2023-06-22T01:23:26;12.57;;;11.35;;
72676;SDS011;60755;51.374;10.662;2023-06-22T01:25:57;13.10;;;11.75;;
72676;SDS011;60755;51.374;10.662;2023-06-22T01:28:39;13.00;;;11.80;;
72676;SDS011;60755;51.374;10.662;2023-06-22T01:31:12;12.90;;;11.68;;
72676;SDS011;60755;51.374;10.662;2023-06-22T01:33:41;13.02;;;11.73;;
72676;SDS011;60755;51.374;10.662;2023-06-22T01:36:09;16.65;;;12.30;;
72676;SDS011;60755;51.374;10.662;2023-06-22T01:38:38;12.25;;;11.02;;
72676;SDS011;60755;51.374;10.662;2023-06-22T01:41:05;13.50;;;11.45;;
72676;SDS011;60755;51.374;10.662;2023-06-22T01:43:32;13.00;;;10.23;;
72676;SDS011;60755;51.374;10.662;2023-06-22T01:46:02;12.85;;;10.13;;
72676;SDS011;60755;51.374;10.662;2023-06-22T01:48:30;18.30;;;11.27;;
72676;SDS011;60755;51.374;10.662;2023-06-22T01:50:57;10.52;;;9.48;;
72676;SDS011;60755;51.374;10.662;2023-06-22T01:53:24;15.75;;;10.32;;
72676;SDS011;60755;51.374;10.662;2023-06-22T01:55:51;12.73;;;11.43;;
72676;SDS011;60755;51.374;10.662;2023-06-22T01:58:20;17.02;;;12.70;;
72676;SDS011;60755;51.374;10.662;2023-06-22T02:00:51;13.90;;;12.25;;
72676;SDS011;60755;51.374;10.662;2023-06-22T02:03:25;14.55;;;12.10;;
72676;SDS011;60755;51.374;10.662;2023-06-22T02:05:57;13.43;;;12.00;;
72676;SDS011;60755;51.374;10.662;2023-06-22T02:08:29;13.77;;;12.23;;
72676;SDS011;60755;51.374;10.662;2023-06-22T02:10:59;16.58;;;13.15;;
72676;SDS011;60755;51.374;10.662;2023-06-22T02:13:28;15.00;;;13.52;;
72676;SDS011;60755;51.374;10.662;2023-06-22T02:15:56;16.70;;;13.68;;
72676;SDS011;60755;51.374;10.662;2023-06-22T02:18:25;15.85;;;14.18;;
72676;SDS011;60755;51.374;10.662;2023-06-22T02:20:52;15.60;;;14.00;;
72676;SDS011;60755;51.374;10.662;2023-06-22T02:23:19;16.70;;;14.30;;
72676;SDS011;60755;51.374;10.662;2023-06-22T02:25:46;19.65;;;15.25;;
72676;SDS011;60755;51.374;10.662;2023-06-22T02:28:13;17.02;;;15.27;;
72676;SDS011;60755;51.374;10.662;2023-06-22T02:30:40;18.17;;;15.85;;
72676;SDS011;60755;51.374;10.662;2023-06-22T02:33:07;17.63;;;15.23;;
72676;SDS011;60755;51.374;10.662;2023-06-22T02:35:35;17.63;;;15.93;;
72676;SDS011;60755;51.374;10.662;2023-06-22T02:38:03;17.83;;;15.45;;
72676;SDS011;60755;51.374;10.662;2023-06-22T02:40:31;16.10;;;14.50;;
72676;SDS011;60755;51.374;10.662;2023-06-22T02:42:58;16.65;;;14.80;;
72676;SDS011;60755;51.374;10.662;2023-06-22T02:45:27;17.15;;;14.75;;
72676;SDS011;60755;51.374;10.662;2023-06-22T02:47:55;15.95;;;14.25;;
72676;SDS011;60755;51.374;10.662;2023-06-22T02:50:22;15.40;;;13.90;;
72676;SDS011;60755;51.374;10.662;2023-06-22T02:52:52;16.65;;;14.15;;
72676;SDS011;60755;51.374;10.662;2023-06-22T02:55:19;17.45;;;13.38;;
72676;SDS011;60755;51.374;10.662;2023-06-22T02:57:53;17.73;;;14.23;;
72676;SDS011;60755;51.374;10.662;2023-06-22T03:00:21;15.35;;;13.88;;
72676;SDS011;60755;51.374;10.662;2023-06-22T03:02:48;13.90;;;11.38;;
72676;SDS011;60755;51.374;10.662;2023-06-22T03:05:16;11.02;;;10.05;;
72676;SDS011;60755;51.374;10.662;2023-06-22T03:07:44;16.15;;;11.43;;
72676;SDS011;60755;51.374;10.662;2023-06-22T03:10:16;12.85;;;11.57;;
72676;SDS011;60755;51.374;10.662;2023-06-22T03:12:43;13.52;;;12.05;;
72676;SDS011;60755;51.374;10.662;2023-06-22T03:15:12;13.13;;;11.10;;
72676;SDS011;60755;51.374;10.662;2023-06-22T03:17:40;15.15;;;11.13;;
72676;SDS011;60755;51.374;10.662;2023-06-22T03:20:08;18.83;;;15.93;;
72676;SDS011;60755;51.374;10.662;2023-06-22T03:22:37;26.08;;;18.17;;
72676;SDS011;60755;51.374;10.662;2023-06-22T03:25:05;18.25;;;16.10;;
72676;SDS011;60755;51.374;10.662;2023-06-22T03:27:41;19.10;;;17.10;;
72676;SDS011;60755;51.374;10.662;2023-06-22T03:30:10;18.73;;;15.38;;
72676;SDS011;60755;51.374;10.662;2023-06-22T03:32:38;12.05;;;10.63;;
72676;SDS011;60755;51.374;10.662;2023-06-22T03:35:06;17.70;;;11.15;;
72676;SDS011;60755;51.374;10.662;2023-06-22T03:37:36;16.80;;;11.10;;
72676;SDS011;60755;51.374;10.662;2023-06-22T03:40:04;13.45;;;11.13;;
72676;SDS011;60755;51.374;10.662;2023-06-22T03:42:33;10.95;;;9.95;;
72676;SDS011;60755;51.374;10.662;2023-06-22T03:45:03;10.32;;;9.27;;
72676;SDS011;60755;51.374;10.662;2023-06-22T03:47:31;9.57;;;8.63;;
72676;SDS011;60755;51.374;10.662;2023-06-22T03:49:58;9.90;;;8.95;;
72676;SDS011;60755;51.374;10.662;2023-06-22T03:52:25;10.63;;;8.20;;
72676;SDS011;60755;51.374;10.662;2023-06-22T03:54:52;10.77;;;9.07;;
72676;SDS011;60755;51.374;10.662;2023-06-22T03:57:19;10.00;;;9.10;;
72676;SDS011;60755;51.374;10.662;2023-06-22T03:59:46;10.27;;;9.05;;
72676;SDS011;60755;51.374;10.662;2023-06-22T04:02:14;10.07;;;9.13;;
72676;SDS011;60755;51.374;10.662;2023-06-22T04:04:42;11.05;;;9.57;;
72676;SDS011;60755;51.374;10.662;2023-06-22T04:07:09;11.50;;;10.07;;
72676;SDS011;60755;51.374;10.662;2023-06-22T04:09:36;11.32;;;10.23;;
72676;SDS011;60755;51.374;10.662;2023-06-22T04:12:03;13.85;;;9.82;;
72676;SDS011;60755;51.374;10.662;2023-06-22T04:14:30;12.73;;;9.82;;
72676;SDS011;60755;51.374;10.662;2023-06-22T04:16:58;11.82;;;10.32;;
72676;SDS011;60755;51.374;10.662;2023-06-22T04:19:27;11.32;;;10.18;;
72676;SDS011;60755;51.374;10.662;2023-06-22T04:21:53;11.63;;;10.18;;
72676;SDS011;60755;51.374;10.662;2023-06-22T04:24:21;11.75;;;10.55;;
72676;SDS011;60755;51.374;10.662;2023-06-22T04:26:48;13.23;;;11.02;;
72676;SDS011;60755;51.374;10.662;2023-06-22T04:29:18;11.50;;;10.43;;
72676;SDS011;60755;51.374;10.662;2023-06-22T04:31:45;14.70;;;10.07;;
72676;SDS011;60755;51.374;10.662;2023-06-22T04:34:16;12.00;;;10.00;;
72676;SDS011;60755;51.374;10.662;2023-06-22T04:36:44;11.50;;;10.40;;
72676;SDS011;60755;51.374;10.662;2023-06-22T04:39:11;11.07;;;10.00;;
72676;SDS011;60755;51.374;10.662;2023-06-22T04:41:39;11.68;;;10.60;;
72676;SDS011;60755;51.374;10.662;2023-06-22T04:44:10;11.15;;;10.10;;
72676;SDS011;60755;51.374;10.662;2023-06-22T04:46:38;11.48;;;10.27;;
72676;SDS011;60755;51.374;10.662;2023-06-22T04:49:06;11.45;;;10.38;;
72676;SDS011;60755;51.374;10.662;2023-06-22T04:51:36;12.50;;;11.23;;
72676;SDS011;60755;51.374;10.662;2023-06-22T04:54:06;12.43;;;10.73;;
72676;SDS011;60755;51.374;10.662;2023-06-22T04:56:34;11.68;;;10.52;;
72676;SDS011;60755;51.374;10.662;2023-06-22T04:59:02;11.80;;;10.80;;
72676;SDS011;60755;51.374;10.662;2023-06-22T05:01:30;11.48;;;10.48;;
72676;SDS011;60755;51.374;10.662;2023-06-22T05:03:58;11.80;;;10.32;;
72676;SDS011;60755;51.374;10.662;2023-06-22T05:06:27;11.05;;;10.05;;
72676;SDS011;60755;51.374;10.662;2023-06-22T05:08:55;12.07;;;10.95;;
72676;SDS011;60755;51.374;10.662;2023-06-22T05:11:25;12.25;;;11.05;;
72676;SDS011;60755;51.374;10.662;2023-06-22T05:13:53;11.52;;;10.52;;
72676;SDS011;60755;51.374;10.662;2023-06-22T05:16:21;11.75;;;10.73;;
72676;SDS011;60755;51.374;10.662;2023-06-22T05:18:53;11.65;;;10.55;;
72676;SDS011;60755;51.374;10.662;2023-06-22T05:21:22;15.85;;;14.20;;
72676;SDS011;60755;51.374;10.662;2023-06-22T05:23:50;14.88;;;13.48;;
72676;SDS011;60755;51.374;10.662;2023-06-22T05:26:18;12.80;;;11.50;;
72676;SDS011;60755;51.374;10.662;2023-06-22T05:28:47;11.50;;;10.48;;
72676;SDS011;60755;51.374;10.662;2023-06-22T05:31:15;11.90;;;10.73;;
72676;SDS011;60755;51.374;10.662;2023-06-22T05:33:43;12.90;;;11.20;;
72676;SDS011;60755;51.374;10.662;2023-06-22T05:36:11;11.98;;;10.88;;
72676;SDS011;60755;51.374;10.662;2023-06-22T05:38:38;12.40;;;11.32;;
72676;SDS011;60755;51.374;10.662;2023-06-22T05:41:06;12.48;;;11.02;;
72676;SDS011;60755;51.374;10.662;2023-06-22T05:43:33;13.48;;;12.10;;
72676;SDS011;60755;51.374;10.662;2023-06-22T05:46:03;12.95;;;11.75;;
72676;SDS011;60755;51.374;10.662;2023-06-22T05:48:31;12.27;;;11.10;;
72676;SDS011;60755;51.374;10.662;2023-06-22T05:50:58;14.48;;;10.73;;
72676;SDS011;60755;51.374;10.662;2023-06-22T05:53:25;12.18;;;11.02;;
72676;SDS011;60755;51.374;10.662;2023-06-22T05:55:53;12.98;;;11.40;;
72676;SDS011;60755;51.374;10.662;2023-06-22T05:58:20;11.90;;;10.70;;
72676;SDS011;60755;51.374;10.662;2023-06-22T06:00:47;12.65;;;10.77;;
72676;SDS011;60755;51.374;10.662;2023-06-22T06:03:16;10.70;;;9.80;;
72676;SDS011;60755;51.374;10.662;2023-06-22T06:05:43;16.23;;;9.68;;
72676;SDS011;60755;51.374;10.662;2023-06-22T06:08:11;9.90;;;8.70;;
72676;SDS011;60755;51.374;10.662;2023-06-22T06:10:38;10.20;;;9.30;;
72676;SDS011;60755;51.374;10.662;2023-06-22T06:13:06;9.65;;;8.85;;
72676;SDS011;60755;51.374;10.662;2023-06-22T06:15:33;11.35;;;9.60;;
72676;SDS011;60755;51.374;10.662;2023-06-22T06:18:01;12.65;;;9.90;;
72676;SDS011;60755;51.374;10.662;2023-06-22T06:20:32;11.70;;;9.23;;
72676;SDS011;60755;51.374;10.662;2023-06-22T06:22:59;10.98;;;9.88;;
72676;SDS011;60755;51.374;10.662;2023-06-22T06:25:26;11.07;;;10.00;;
72676;SDS011;60755;51.374;10.662;2023-06-22T06:27:53;10.73;;;9.63;;
72676;SDS011;60755;51.374;10.662;2023-06-22T06:30:21;11.43;;;10.30;;
72676;SDS011;60755;51.374;10.662;2023-06-22T06:32:49;10.85;;;9.75;;
72676;SDS011;60755;51.374;10.662;2023-06-22T06:35:17;11.02;;;9.82;;
72676;SDS011;60755;51.374;10.662;2023-06-22T06:37:46;11.02;;;10.13;;
72676;SDS011;60755;51.374;10.662;2023-06-22T06:40:16;10.52;;;9.63;;
72676;SDS011;60755;51.374;10.662;2023-06-22T06:42:45;10.55;;;9.70;;
72676;SDS011;60755;51.374;10.662;2023-06-22T06:45:15;11.10;;;10.20;;
72676;SDS011;60755;51.374;10.662;2023-06-22T06:47:43;11.32;;;10.25;;
72676;SDS011;60755;51.374;10.662;2023-06-22T06:50:11;11.70;;;10.55;;
72676;SDS011;60755;51.374;10.662;2023-06-22T06:52:39;11.05;;;9.93;;
72676;SDS011;60755;51.374;10.662;2023-06-22T06:55:08;11.13;;;10.13;;
72676;SDS011;60755;51.374;10.662;2023-06-22T06:57:37;11.68;;;10.52;;
72676;SDS011;60755;51.374;10.662;2023-06-22T07:00:05;11.27;;;10.18;;
72676;SDS011;60755;51.374;10.662;2023-06-22T07:02:37;11.18;;;10.18;;
72676;SDS011;60755;51.374;10.662;2023-06-22T07:05:05;11.43;;;10.32;;
72676;SDS011;60755;51.374;10.662;2023-06-22T07:07:33;11.55;;;10.25;;
72676;SDS011;60755;51.374;10.662;2023-06-22T07:10:01;11.27;;;10.18;;
72676;SDS011;60755;51.374;10.662;2023-06-22T07:12:30;11.35;;;10.32;;
72676;SDS011;60755;51.374;10.662;2023-06-22T07:15:00;14.35;;;11.18;;
72676;SDS011;60755;51.374;10.662;2023-06-22T07:17:29;12.57;;;11.05;;
72676;SDS011;60755;51.374;10.662;2023-06-22T07:19:56;11.82;;;10.73;;
72676;SDS011;60755;51.374;10.662;2023-06-22T07:22:23;11.70;;;10.60;;
72676;SDS011;60755;51.374;10.662;2023-06-22T07:24:50;12.30;;;11.10;;
72676;SDS011;60755;51.374;10.662;2023-06-22T07:27:18;12.15;;;10.90;;
72676;SDS011;60755;51.374;10.662;2023-06-22T07:29:46;11.55;;;10.65;;
72676;SDS011;60755;51.374;10.662;2023-06-22T07:32:14;10.90;;;9.90;;
72676;SDS011;60755;51.374;10.662;2023-06-22T07:34:41;11.52;;;10.52;;
72676;SDS011;60755;51.374;10.662;2023-06-22T07:37:09;10.60;;;9.70;;
72676;SDS011;60755;51.374;10.662;2023-06-22T07:39:36;12.05;;;10.85;;
72676;SDS011;60755;51.374;10.662;2023-06-22T07:42:03;11.00;;;9.90;;
72676;SDS011;60755;51.374;10.662;2023-06-22T07:44:31;11.88;;;10.35;;
72676;SDS011;60755;51.374;10.662;2023-06-22T07:47:00;11.25;;;10.35;;
72676;SDS011;60755;51.374;10.662;2023-06-22T07:49:27;10.88;;;9.88;;
72676;SDS011;60755;51.374;10.662;2023-06-22T07:51:55;10.63;;;9.82;;
72676;SDS011;60755;51.374;10.662;2023-06-22T07:54:22;10.95;;;10.05;;
72676;SDS011;60755;51.374;10.662;2023-06-22T07:56:49;10.98;;;9.93;;
72676;SDS011;60755;51.374;10.662;2023-06-22T07:59:17;11.90;;;9.77;;
72676;SDS011;60755;51.374;10.662;2023-06-22T08:01:44;10.30;;;9.50;;
72676;SDS011;60755;51.374;10.662;2023-06-22T08:04:12;11.13;;;10.13;;
72676;SDS011;60755;51.374;10.662;2023-06-22T08:06:39;9.93;;;8.95;;
72676;SDS011;60755;51.374;10.662;2023-06-22T08:09:07;10.77;;;9.73;;
72676;SDS011;60755;51.374;10.662;2023-06-22T08:11:34;10.60;;;9.43;;
72676;SDS011;60755;51.374;10.662;2023-06-22T08:14:02;10.63;;;9.63;;
72676;SDS011;60755;51.374;10.662;2023-06-22T08:16:29;10.50;;;9.60;;
72676;SDS011;60755;51.374;10.662;2023-06-22T08:18:57;10.73;;;9.75;;
72676;SDS011;60755;51.374;10.662;2023-06-22T08:21:25;9.70;;;8.80;;
72676;SDS011;60755;51.374;10.662;2023-06-22T08:23:53;8.55;;;7.95;;
72676;SDS011;60755;51.374;10.662;2023-06-22T08:26:20;14.00;;;12.05;;
72676;SDS011;60755;51.374;10.662;2023-06-22T08:28:47;14.70;;;13.30;;
72676;SDS011;60755;51.374;10.662;2023-06-22T08:31:15;10.43;;;9.43;;
72676;SDS011;60755;51.374;10.662;2023-06-22T08:33:42;11.85;;;10.75;;
72676;SDS011;60755;51.374;10.662;2023-06-22T08:36:11;9.80;;;9.00;;
72676;SDS011;60755;51.374;10.662;2023-06-22T08:38:40;9.18;;;8.38;;
72676;SDS011;60755;51.374;10.662;2023-06-22T08:41:07;9.15;;;8.35;;
72676;SDS011;60755;51.374;10.662;2023-06-22T08:43:34;9.95;;;9.13;;
72676;SDS011;60755;51.374;10.662;2023-06-22T08:46:02;10.55;;;9.50;;
72676;SDS011;60755;51.374;10.662;2023-06-22T08:48:29;9.35;;;8.55;;
72676;SDS011;60755;51.374;10.662;2023-06-22T08:50:56;9.20;;;8.45;;
72676;SDS011;60755;51.374;10.662;2023-06-22T08:53:23;10.18;;;8.52;;
72676;SDS011;60755;51.374;10.662;2023-06-22T08:55:52;9.30;;;8.50;;
72676;SDS011;60755;51.374;10.662;2023-06-22T08:58:19;8.77;;;7.88;;
72676;SDS011;60755;51.374;10.662;2023-06-22T09:00:47;9.57;;;8.70;;
72676;SDS011;60755;51.374;10.662;2023-06-22T09:03:17;8.65;;;7.95;;
72676;SDS011;60755;51.374;10.662;2023-06-22T09:05:46;8.77;;;8.07;;
72676;SDS011;60755;51.374;10.662;2023-06-22T09:08:13;9.45;;;7.80;;
72676;SDS011;60755;51.374;10.662;2023-06-22T09:10:40;8.95;;;8.05;;
72676;SDS011;60755;51.374;10.662;2023-06-22T09:13:09;8.85;;;7.95;;
72676;SDS011;60755;51.374;10.662;2023-06-22T09:15:36;10.25;;;8.50;;
72676;SDS011;60755;51.374;10.662;2023-06-22T09:18:04;7.93;;;7.32;;
72676;SDS011;60755;51.374;10.662;2023-06-22T09:20:31;8.88;;;8.13;;
72676;SDS011;60755;51.374;10.662;2023-06-22T09:22:58;9.07;;;8.18;;
72676;SDS011;60755;51.374;10.662;2023-06-22T09:25:26;8.82;;;8.13;;
72676;SDS011;60755;51.374;10.662;2023-06-22T09:27:53;9.85;;;8.27;;
72676;SDS011;60755;51.374;10.662;2023-06-22T09:30:22;8.68;;;7.88;;
72676;SDS011;60755;51.374;10.662;2023-06-22T09:32:49;9.27;;;8.32;;
72676;SDS011;60755;51.374;10.662;2023-06-22T09:35:17;9.30;;;8.40;;
72676;SDS011;60755;51.374;10.662;2023-06-22T09:37:45;8.98;;;8.25;;
72676;SDS011;60755;51.374;10.662;2023-06-22T09:40:12;9.05;;;8.13;;
72676;SDS011;60755;51.374;10.662;2023-06-22T09:42:42;8.55;;;7.88;;
72676;SDS011;60755;51.374;10.662;2023-06-22T09:45:10;9.10;;;8.25;;
72676;SDS011;60755;51.374;10.662;2023-06-22T09:47:38;8.85;;;7.80;;
72676;SDS011;60755;51.374;10.662;2023-06-22T09:50:06;8.48;;;7.60;;
72676;SDS011;60755;51.374;10.662;2023-06-22T09:52:34;9.68;;;7.47;;
72676;SDS011;60755;51.374;10.662;2023-06-22T09:55:01;8.93;;;8.15;;
72676;SDS011;60755;51.374;10.662;2023-06-22T09:57:29;8.55;;;7.80;;
72676;SDS011;60755;51.374;10.662;2023-06-22T09:59:57;10.77;;;8.75;;
72676;SDS011;60755;51.374;10.662;2023-06-22T10:02:24;8.30;;;7.68;;
72676;SDS011;60755;51.374;10.662;2023-06-22T10:04:54;9.25;;;8.45;;
72676;SDS011;60755;51.374;10.662;2023-06-22T10:07:21;8.90;;;8.00;;
72676;SDS011;60755;51.374;10.662;2023-06-22T10:09:49;8.82;;;8.05;;
72676;SDS011;60755;51.374;10.662;2023-06-22T10:12:16;8.63;;;7.88;;
72676;SDS011;60755;51.374;10.662;2023-06-22T10:14:43;10.95;;;8.05;;
72676;SDS011;60755;51.374;10.662;2023-06-22T10:17:10;8.48;;;7.78;;
72676;SDS011;60755;51.374;10.662;2023-06-22T10:19:37;9.13;;;7.90;;
72676;SDS011;60755;51.374;10.662;2023-06-22T10:22:08;8.38;;;7.68;;
72676;SDS011;60755;51.374;10.662;2023-06-22T10:24:35;9.88;;;8.90;;
72676;SDS011;60755;51.374;10.662;2023-06-22T10:27:04;8.52;;;7.75;;
72676;SDS011;60755;51.374;10.662;2023-06-22T10:29:32;8.85;;;8.02;;
72676;SDS011;60755;51.374;10.662;2023-06-22T10:31:59;10.18;;;8.70;;
72676;SDS011;60755;51.374;10.662;2023-06-22T10:34:26;9.55;;;8.18;;
72676;SDS011;60755;51.374;10.662;2023-06-22T10:36:54;9.20;;;8.40;;
72676;SDS011;60755;51.374;10.662;2023-06-22T10:39:23;9.68;;;8.77;;
72676;SDS011;60755;51.374;10.662;2023-06-22T10:41:50;10.35;;;9.32;;
72676;SDS011;60755;51.374;10.662;2023-06-22T10:44:17;9.27;;;8.43;;
72676;SDS011;60755;51.374;10.662;2023-06-22T10:46:44;9.07;;;8.27;;
72676;SDS011;60755;51.374;10.662;2023-06-22T10:49:13;9.23;;;8.30;;
72676;SDS011;60755;51.374;10.662;2023-06-22T10:51:40;8.98;;;8.27;;
72676;SDS011;60755;51.374;10.662;2023-06-22T10:54:07;9.63;;;8.82;;
72676;SDS011;60755;51.374;10.662;2023-06-22T10:56:36;8.95;;;8.02;;
72676;SDS011;60755;51.374;10.662;2023-06-22T10:59:03;8.70;;;7.90;;
72676;SDS011;60755;51.374;10.662;2023-06-22T11:01:31;8.68;;;7.97;;
72676;SDS011;60755;51.374;10.662;2023-06-22T11:03:59;9.93;;;8.32;;
72676;SDS011;60755;51.374;10.662;2023-06-22T11:06:26;8.73;;;7.82;;
72676;SDS011;60755;51.374;10.662;2023-06-22T11:08:53;9.18;;;8.27;;
72676;SDS011;60755;51.374;10.662;2023-06-22T11:11:20;9.27;;;8.48;;
72676;SDS011;60755;51.374;10.662;2023-06-22T11:13:49;9.05;;;8.32;;
72676;SDS011;60755;51.374;10.662;2023-06-22T11:16:16;9.05;;;8.35;;
72676;SDS011;60755;51.374;10.662;2023-06-22T11:18:43;10.10;;;9.30;;
72676;SDS011;60755;51.374;10.662;2023-06-22T11:21:11;10.00;;;9.13;;
72676;SDS011;60755;51.374;10.662;2023-06-22T11:23:38;9.80;;;8.85;;
72676;SDS011;60755;51.374;10.662;2023-06-22T11:26:05;10.30;;;9.43;;
72676;SDS011;60755;51.374;10.662;2023-06-22T11:28:32;10.07;;;9.27;;
72676;SDS011;60755;51.374;10.662;2023-06-22T11:31:01;11.27;;;10.05;;
72676;SDS011;60755;51.374;10.662;2023-06-22T11:33:29;11.48;;;10.27;;
72676;SDS011;60755;51.374;10.662;2023-06-22T11:35:56;11.85;;;10.60;;
72676;SDS011;60755;51.374;10.662;2023-06-22T11:38:23;11.90;;;10.77;;
72676;SDS011;60755;51.374;10.662;2023-06-22T11:40:50;11.13;;;10.13;;
72676;SDS011;60755;51.374;10.662;2023-06-22T11:43:17;11.35;;;10.35;;
72676;SDS011;60755;51.374;10.662;2023-06-22T11:45:45;11.68;;;10.68;;
72676;SDS011;60755;51.374;10.662;2023-06-22T11:48:13;10.75;;;9.85;;
72676;SDS011;60755;51.374;10.662;2023-06-22T11:50:40;10.30;;;9.40;;
72676;SDS011;60755;51.374;10.662;2023-06-22T11:53:08;10.40;;;9.40;;
72676;SDS011;60755;51.374;10.662;2023-06-22T11:55:35;10.93;;;9.13;;
72676;SDS011;60755;51.374;10.662;2023-06-22T11:58:02;9.95;;;9.00;;
72676;SDS011;60755;51.374;10.662;2023-06-22T12:00:31;10.10;;;9.10;;
72676;SDS011;60755;51.374;10.662;2023-06-22T12:02:58;10.25;;;9.27;;
72676;SDS011;60755;51.374;10.662;2023-06-22T12:05:26;9.60;;;8.85;;
72676;SDS011;60755;51.374;10.662;2023-06-22T12:07:53;9.70;;;8.90;;
72676;SDS011;60755;51.374;10.662;2023-06-22T12:10:20;10.88;;;9.77;;
72676;SDS011;60755;51.374;10.662;2023-06-22T12:12:48;10.93;;;9.18;;
72676;SDS011;60755;51.374;10.662;2023-06-22T12:15:15;14.20;;;9.55;;
72676;SDS011;60755;51.374;10.662;2023-06-22T12:17:42;11.02;;;9.05;;
72676;SDS011;60755;51.374;10.662;2023-06-22T12:20:09;10.40;;;9.50;;
72676;SDS011;60755;51.374;10.662;2023-06-22T12:22:38;9.95;;;9.05;;
72676;SDS011;60755;51.374;10.662;2023-06-22T12:25:05;10.43;;;9.52;;
72676;SDS011;60755;51.374;10.662;2023-06-22T12:27:33;9.75;;;8.80;;
72676;SDS011;60755;51.374;10.662;2023-06-22T12:30:00;9.95;;;9.15;;
72676;SDS011;60755;51.374;10.662;2023-06-22T12:32:27;10.20;;;9.20;;
72676;SDS011;60755;51.374;10.662;2023-06-22T12:34:54;12.95;;;9.55;;
72676;SDS011;60755;51.374;10.662;2023-06-22T12:37:21;11.50;;;9.75;;
72676;SDS011;60755;51.374;10.662;2023-06-22T12:39:50;9.73;;;8.80;;
72676;SDS011;60755;51.374;10.662;2023-06-22T12:42:16;9.23;;;8.43;;
72676;SDS011;60755;51.374;10.662;2023-06-22T12:44:43;9.20;;;8.48;;
72676;SDS011;60755;51.374;10.662;2023-06-22T12:47:10;9.20;;;8.50;;
72676;SDS011;60755;51.374;10.662;2023-06-22T12:49:38;8.30;;;7.50;;
72676;SDS011;60755;51.374;10.662;2023-06-22T12:52:08;9.13;;;8.38;;
72676;SDS011;60755;51.374;10.662;2023-06-22T12:54:35;10.95;;;8.18;;
72676;SDS011;60755;51.374;10.662;2023-06-22T12:57:04;9.00;;;8.20;;
72676;SDS011;60755;51.374;10.662;2023-06-22T12:59:31;8.50;;;7.88;;
72676;SDS011;60755;51.374;10.662;2023-06-22T13:01:58;10.88;;;7.82;;
72676;SDS011;60755;51.374;10.662;2023-06-22T13:04:25;8.60;;;7.80;;
72676;SDS011;60755;51.374;10.662;2023-06-22T13:06:52;9.50;;;7.80;;
72676;SDS011;60755;51.374;10.662;2023-06-22T13:09:19;8.65;;;7.82;;
72676;SDS011;60755;51.374;10.662;2023-06-22T13:11:46;8.35;;;7.55;;
72676;SDS011;60755;51.374;10.662;2023-06-22T13:14:15;9.48;;;7.70;;
72676;SDS011;60755;51.374;10.662;2023-06-22T13:16:42;8.65;;;7.75;;
72676;SDS011;60755;51.374;10.662;2023-06-22T13:19:09;8.45;;;7.63;;
72676;SDS011;60755;51.374;10.662;2023-06-22T13:21:36;8.23;;;7.55;;
72676;SDS011;60755;51.374;10.662;2023-06-22T13:24:03;8.27;;;7.63;;
72676;SDS011;60755;51.374;10.662;2023-06-22T13:26:32;8.02;;;7.35;;
72676;SDS011;60755;51.374;10.662;2023-06-22T13:28:59;8.65;;;7.95;;
72676;SDS011;60755;51.374;10.662;2023-06-22T13:31:27;8.45;;;7.55;;
72676;SDS011;60755;51.374;10.662;2023-06-22T13:33:54;8.65;;;7.85;;
72676;SDS011;60755;51.374;10.662;2023-06-22T13:36:21;8.23;;;7.53;;
72676;SDS011;60755;51.374;10.662;2023-06-22T13:38:49;11.38;;;8.23;;
72676;SDS011;60755;51.374;10.662;2023-06-22T13:41:16;9.52;;;8.07;;
72676;SDS011;60755;51.374;10.662;2023-06-22T13:43:43;8.13;;;7.43;;
72676;SDS011;60755;51.374;10.662;2023-06-22T13:46:10;8.18;;;7.38;;
72676;SDS011;60755;51.374;10.662;2023-06-22T13:48:38;8.30;;;7.60;;
72676;SDS011;60755;51.374;10.662;2023-06-22T13:51:05;8.95;;;8.10;;
72676;SDS011;60755;51.374;10.662;2023-06-22T13:53:32;10.15;;;8.27;;
72676;SDS011;60755;51.374;10.662;2023-06-22T13:55:59;7.70;;;7.10;;
72676;SDS011;60755;51.374;10.662;2023-06-22T13:58:26;9.00;;;8.10;;
72676;SDS011;60755;51.374;10.662;2023-06-22T14:00:53;7.68;;;7.07;;
72676;SDS011;60755;51.374;10.662;2023-06-22T14:03:20;10.07;;;7.93;;
72676;SDS011;60755;51.374;10.662;2023-06-22T14:05:49;8.35;;;7.55;;
72676;SDS011;60755;51.374;10.662;2023-06-22T14:08:16;9.95;;;7.60;;
72676;SDS011;60755;51.374;10.662;2023-06-22T14:10:42;8.63;;;7.82;;
72676;SDS011;60755;51.374;10.662;2023-06-22T14:13:09;8.57;;;7.20;;
72676;SDS011;60755;51.374;10.662;2023-06-22T14:15:36;8.07;;;7.05;;
72676;SDS011;60755;51.374;10.662;2023-06-22T14:18:03;7.35;;;6.85;;
72676;SDS011;60755;51.374;10.662;2023-06-22T14:20:30;7.85;;;7.15;;
72676;SDS011;60755;51.374;10.662;2023-06-22T14:22:59;7.93;;;7.15;;
72676;SDS011;60755;51.374;10.662;2023-06-22T14:25:26;7.30;;;6.80;;